Time;durP1;ratioP1;P1;durP2;ratioP2;P2;SDS_P1;SDS_P2;PMS_P1;PMS_P2;Temp;Humidity;BMP_temperature;BMP_pressure;BME280_temperature;BME280_humidity;BME280_pressure;Samples;Min_cycle;Max_cycle;Signal;HPM_P1;HPM_P2
2022/06/18 00:00:12;;;;;;;5.25;1.63;;;;;;;16.56;93.85;99522.97;5116117;27;19959;-79
2022/06/18 00:02:43;;;;;;;3.67;2.40;;;;;;;16.66;93.73;99525.28;5116659;28;20054;-78
2022/06/18 00:05:15;;;;;;;4.18;2.10;;;;;;;16.66;94.38;99520.63;5116781;28;20058;-79
2022/06/18 00:07:46;;;;;;;3.53;2.10;;;;;;;16.47;94.62;99505.91;5116385;28;20052;-79
2022/06/18 00:10:17;;;;;;;3.60;2.17;;;;;;;16.38;94.07;99523.63;5116665;28;20054;-79
2022/06/18 00:15:32;;;;;;;2.30;1.75;;;;;;;16.55;92.57;99521.31;5098089;28;20062;-79
2022/06/18 00:18:03;;;;;;;2.40;1.70;;;;;;;16.38;91.73;99513.53;5099330;28;20051;-78
2022/06/18 00:20:34;;;;;;;1.75;1.63;;;;;;;16.50;91.71;99527.44;5097993;28;20408;-78
2022/06/18 00:23:02;;;;;;;2.53;1.90;;;;;;;16.45;91.24;99503.38;5095589;28;20059;-78
2022/06/18 00:25:34;;;;;;;2.97;2.28;;;;;;;16.37;93.45;99521.97;5095626;28;20055;-78
2022/06/18 00:28:04;;;;;;;2.90;1.67;;;;;;;16.25;93.77;99519.03;5109478;28;20514;-78
2022/06/18 00:30:31;;;;;;;2.05;1.85;;;;;;;16.28;93.65;99510.38;5116139;28;20043;-78
2022/06/18 00:32:57;;;;;;;5.63;2.00;;;;;;;16.18;95.00;99523.69;5115706;28;20044;-78
2022/06/18 00:35:25;;;;;;;3.03;1.90;;;;;;;16.09;96.27;99528.53;5115394;28;20059;-78
2022/06/18 00:37:56;;;;;;;4.30;2.20;;;;;;;16.06;96.76;99528.97;5115447;28;20079;-78
2022/06/18 00:40:27;;;;;;;4.45;1.95;;;;;;;15.98;97.54;99521.81;5113150;28;20406;-78
2022/06/18 00:42:54;;;;;;;4.47;2.05;;;;;;;15.75;99.38;99514.81;5115409;28;20079;-78
2022/06/18 00:45:26;;;;;;;4.43;1.90;;;;;;;15.50;99.63;99486.34;5115269;28;20477;-78
2022/06/18 00:48:00;;;;;;;2.17;1.98;;;;;;;15.75;99.10;99511.22;5115550;28;20055;-78
2022/06/18 00:50:33;;;;;;;3.10;1.77;;;;;;;15.90;98.39;99509.16;5115174;28;20135;-78
2022/06/18 00:53:09;;;;;;;3.33;1.85;;;;;;;15.62;99.48;99486.56;5114779;28;20510;-78
2022/06/18 00:55:41;;;;;;;3.95;1.95;;;;;;;15.66;100.00;99513.34;5113688;27;20039;-79
2022/06/18 00:58:12;;;;;;;4.38;2.00;;;;;;;15.51;99.48;99510.78;5115042;28;20040;-78
2022/06/18 01:00:43;;;;;;;5.72;1.67;;;;;;;15.63;99.22;99507.44;5114845;28;20514;-78
2022/06/18 01:03:23;;;;;;;1.67;1.58;;;;;;;15.73;97.03;99499.63;5114605;28;20044;-78
2022/06/18 01:05:52;;;;;;;;;;;;;;;15.85;94.78;99506.22;5116294;28;20051;-78
2022/06/18 01:08:22;;;;;;;5.60;2.10;;;;;;;15.65;95.71;99486.13;5115676;28;19919;-78
2022/06/18 01:10:50;;;;;;;;;;;;;;;15.71;96.77;99504.47;5114720;28;20048;-79
2022/06/18 01:13:22;;;;;;;4.30;2.13;;;;;;;15.67;96.26;99503.19;5114960;28;19927;-78
2022/06/18 01:15:50;;;;;;;1.95;1.55;;;;;;;15.64;96.11;99507.22;5115588;28;20066;-79
2022/06/18 01:18:17;;;;;;;5.63;1.60;;;;;;;15.54;97.05;99502.16;5115078;28;20066;-78
2022/06/18 01:20:48;;;;;;;4.07;1.58;;;;;;;15.54;97.81;99495.84;5114852;28;20047;-78
2022/06/18 01:23:26;;;;;;;2.80;1.83;;;;;;;15.36;98.42;99483.56;5114617;28;20077;-78
2022/06/18 01:25:55;;;;;;;3.72;1.90;;;;;;;15.24;100.00;99481.66;5095153;28;20048;-78
2022/06/18 01:28:22;;;;;;;2.40;1.90;;;;;;;15.30;100.00;99492.63;5094204;28;20055;-78
2022/06/18 01:30:49;;;;;;;8.18;2.00;;;;;;;15.06;100.00;99471.31;5094468;28;20052;-78
2022/06/18 01:33:16;;;;;;;3.10;2.38;;;;;;;15.21;100.00;99486.50;5105918;27;20062;-78
2022/06/18 01:35:47;;;;;;;3.95;1.95;;;;;;;15.27;100.00;99479.34;5114602;28;20093;-78
2022/06/18 01:38:14;;;;;;;2.58;2.00;;;;;;;15.42;99.88;99472.84;5114670;28;20079;-77
2022/06/18 01:40:47;;;;;;;2.90;2.08;;;;;;;15.44;99.12;99463.34;5114814;28;20055;-78
2022/06/18 01:43:19;;;;;;;2.58;1.90;;;;;;;15.44;98.90;99465.25;5114770;28;20048;-79
2022/06/18 01:45:52;;;;;;;3.35;1.80;;;;;;;15.33;98.94;99453.84;5114170;28;20055;-78
2022/06/18 01:48:23;;;;;;;2.53;2.15;;;;;;;15.20;99.10;99431.94;5114463;28;20054;-78
2022/06/18 01:50:53;;;;;;;3.63;2.00;;;;;;;15.36;100.00;99450.69;5114739;28;20100;-78
2022/06/18 01:53:25;;;;;;;2.28;1.60;;;;;;;15.29;100.00;99452.59;5116249;28;20479;-78
2022/06/18 01:55:55;;;;;;;2.95;1.90;;;;;;;15.27;98.89;99440.16;5114096;28;20054;-78
2022/06/18 01:58:29;;;;;;;2.40;2.20;;;;;;;15.31;100.00;99438.69;5114150;28;20052;-78
2022/06/18 02:00:59;;;;;;;6.60;2.50;;;;;;;15.24;100.00;99437.84;5112888;28;20040;-78
2022/06/18 02:03:25;;;;;;;3.10;2.03;;;;;;;15.08;100.00;99428.97;5113511;28;20058;-78
2022/06/18 02:05:52;;;;;;;2.85;1.83;;;;;;;15.03;100.00;99429.59;5114827;28;20063;-78
2022/06/18 02:08:20;;;;;;;2.70;2.10;;;;;;;15.12;100.00;99432.97;5118378;28;20075;-78
2022/06/18 02:10:52;;;;;;;3.70;2.03;;;;;;;15.26;100.00;99435.75;5117949;28;20043;-78
2022/06/18 02:13:22;;;;;;;2.70;2.20;;;;;;;15.15;99.01;99413.38;5118052;28;20104;-78
2022/06/18 02:15:52;;;;;;;;;;;;;;;15.43;97.43;99434.28;5111615;27;20050;-79
2022/06/18 02:18:19;;;;;;;2.97;1.90;;;;;;;15.38;97.48;99429.41;5117797;28;19927;-78
2022/06/18 02:20:51;;;;;;;3.08;1.77;;;;;;;15.46;96.09;99436.59;5118081;28;20051;-78
2022/06/18 02:23:19;;;;;;;3.17;1.85;;;;;;;15.52;94.75;99426.69;5117604;28;20052;-78
2022/06/18 02:25:46;;;;;;;5.90;2.03;;;;;;;15.50;95.56;99435.09;5117508;28;20073;-78
2022/06/18 02:28:23;;;;;;;2.70;2.10;;;;;;;15.49;95.75;99432.59;5117780;28;20050;-78
2022/06/18 02:30:52;;;;;;;2.58;1.88;;;;;;;15.39;96.41;99424.78;5117032;28;20051;-78
2022/06/18 02:33:31;;;;;;;3.22;1.50;;;;;;;14.97;99.14;99400.31;5117394;28;20051;-78
2022/06/18 02:36:00;;;;;;;2.33;1.70;;;;;;;15.10;100.00;99421.41;5117512;28;20062;-78
2022/06/18 02:38:27;;;;;;;6.57;1.73;;;;;;;15.00;100.00;99420.94;5117100;28;20051;-78
2022/06/18 02:40:54;;;;;;;1.90;1.70;;;;;;;15.14;97.61;99416.34;5117359;28;20059;-78
2022/06/18 02:43:22;;;;;;;2.88;1.67;;;;;;;15.21;95.88;99406.25;5116543;27;20050;-78
2022/06/18 02:45:53;;;;;;;2.45;1.60;;;;;;;15.27;96.10;99410.88;5117108;28;20479;-78
2022/06/18 02:48:24;;;;;;;3.75;1.70;;;;;;;15.20;97.55;99419.09;5117172;28;20048;-78
2022/06/18 02:50:50;;;;;;;3.85;2.10;;;;;;;15.27;98.36;99415.53;5117197;28;20078;-78
2022/06/18 02:53:17;;;;;;;2.10;1.70;;;;;;;15.19;100.00;99413.81;5116787;28;20044;-78
2022/06/18 02:55:45;;;;;;;5.93;2.30;;;;;;;15.22;100.00;99419.72;5116902;28;20055;-78
2022/06/18 02:58:14;;;;;;;6.65;2.42;;;;;;;15.17;100.00;99408.53;5115729;28;20048;-78
2022/06/18 03:00:43;;;;;;;4.70;2.55;;;;;;;15.36;100.00;99417.00;5116828;28;20522;-78
2022/06/18 03:03:13;;;;;;;4.33;2.50;;;;;;;15.34;99.93;99424.56;5116537;28;20478;-78
2022/06/18 03:05:40;;;;;;;3.92;2.33;;;;;;;15.18;99.85;99414.88;5116964;28;20773;-78
2022/06/18 03:08:07;;;;;;;4.28;2.50;;;;;;;15.32;100.00;99426.69;5116958;28;20066;-78
2022/06/18 03:13:19;;;;;;;10.32;4.40;;;;;;;15.35;98.67;99420.78;5116263;27;20055;-78
2022/06/18 03:15:46;;;;;;;3.53;2.03;;;;;;;15.16;99.62;99422.44;5116522;28;20047;-78
2022/06/18 03:18:16;;;;;;;3.22;2.05;;;;;;;14.88;100.00;99409.75;5114997;28;20062;-78
2022/06/18 03:20:55;;;;;;;5.57;2.22;;;;;;;14.91;100.00;99425.78;5116086;28;20078;-78
2022/06/18 03:23:24;;;;;;;4.03;2.30;;;;;;;14.84;100.00;99414.81;5115863;28;20055;-78
2022/06/18 03:25:51;;;;;;;2.20;1.75;;;;;;;14.69;100.00;99414.13;5115614;27;20450;-78
2022/06/18 03:28:19;;;;;;;4.28;2.28;;;;;;;14.69;100.00;99422.31;5115141;28;20043;-78
2022/06/18 03:30:45;;;;;;;9.38;2.13;;;;;;;14.76;100.00;99416.91;5115649;28;20055;-78
2022/06/18 03:33:13;;;;;;;2.90;2.38;;;;;;;14.71;100.00;99409.31;5116060;28;20072;-78
2022/06/18 03:35:44;;;;;;;4.47;2.17;;;;;;;14.89;100.00;99433.34;5115811;28;20055;-78
2022/06/18 03:38:11;;;;;;;3.83;2.20;;;;;;;14.78;100.00;99420.25;5116334;28;20052;-78
2022/06/18 03:40:38;;;;;;;3.40;2.28;;;;;;;14.72;100.00;99432.03;5114509;28;20126;-79
2022/06/18 03:43:05;;;;;;;2.67;2.33;;;;;;;14.64;100.00;99438.53;5116411;27;20047;-78
2022/06/18 03:45:38;;;;;;;3.13;2.20;;;;;;;14.68;100.00;99442.56;5136242;27;20042;-78
2022/06/18 03:48:06;;;;;;;4.47;2.33;;;;;;;14.66;100.00;99444.63;5136294;27;20050;-78
2022/06/18 03:50:34;;;;;;;2.58;2.00;;;;;;;14.52;100.00;99422.66;5136159;27;20047;-78
2022/06/18 03:53:01;;;;;;;3.17;2.10;;;;;;;14.59;100.00;99433.66;5136263;27;20448;-78
2022/06/18 03:55:28;;;;;;;2.85;2.45;;;;;;;14.60;100.00;99448.16;5125838;27;20411;-78
2022/06/18 03:57:54;;;;;;;5.10;2.60;;;;;;;14.64;100.00;99452.22;5115655;28;20059;-78
2022/06/18 04:00:23;;;;;;;3.78;2.70;;;;;;;14.65;100.00;99432.84;5115622;28;20498;-78
2022/06/18 04:02:50;;;;;;;6.18;2.38;;;;;;;14.78;100.00;99451.19;5115509;28;20398;-78
2022/06/18 04:05:16;;;;;;;3.95;2.22;;;;;;;15.00;100.00;99451.91;5115490;28;20118;-78
2022/06/18 04:07:44;;;;;;;3.78;2.05;;;;;;;15.03;100.00;99451.47;5115372;28;20052;-78
2022/06/18 04:10:16;;;;;;;6.65;2.15;;;;;;;15.18;100.00;99440.34;5114136;28;20044;-78
2022/06/18 04:12:42;;;;;;;4.10;2.40;;;;;;;15.29;100.00;99443.53;5114491;27;20055;-78
2022/06/18 04:15:10;;;;;;;4.75;2.50;;;;;;;15.32;100.00;99449.44;5115294;28;20051;-78
2022/06/18 04:17:36;;;;;;;3.97;2.00;;;;;;;15.30;100.00;99447.97;5115209;28;20044;-78
2022/06/18 04:20:03;;;;;;;3.35;2.28;;;;;;;15.13;100.00;99442.88;5115080;28;20414;-78
2022/06/18 04:22:30;;;;;;;3.70;2.10;;;;;;;15.30;100.00;99450.72;5114779;28;20497;-78
2022/06/18 04:24:58;;;;;;;4.38;2.40;;;;;;;15.44;100.00;99451.56;5115282;28;20056;-78
2022/06/18 04:27:24;;;;;;;6.93;2.65;;;;;;;15.53;100.00;99451.13;5113814;27;20058;-78
2022/06/18 04:29:51;;;;;;;2.83;2.20;;;;;;;15.57;100.00;99452.41;5114417;28;20043;-78
2022/06/18 04:32:18;;;;;;;5.32;2.40;;;;;;;15.52;100.00;99440.38;5114946;28;20449;-78
2022/06/18 04:34:44;;;;;;;3.80;2.25;;;;;;;15.70;100.00;99454.31;5115271;28;20048;-78
2022/06/18 04:37:11;;;;;;;4.95;2.22;;;;;;;15.74;100.00;99441.84;5115074;28;20047;-79
2022/06/18 04:39:37;;;;;;;4.57;2.28;;;;;;;15.92;99.22;99449.44;5114307;27;20113;-78
2022/06/18 04:42:05;;;;;;;4.65;1.92;;;;;;;16.06;97.69;99455.78;5114613;28;20055;-79
2022/06/18 04:44:32;;;;;;;2.65;2.38;;;;;;;15.95;98.80;99422.69;5123259;27;20058;-78
2022/06/18 04:46:58;;;;;;;5.03;2.30;;;;;;;16.19;99.40;99452.16;5134722;27;20054;-79
2022/06/18 04:49:25;;;;;;;4.45;2.40;;;;;;;16.28;100.00;99450.03;5134525;27;20042;-78
2022/06/18 04:51:51;;;;;;;2.42;1.92;;;;;;;16.48;100.00;99452.69;5135088;27;20058;-78
2022/06/18 04:54:18;;;;;;;2.72;2.13;;;;;;;16.60;97.66;99456.44;5120220;27;20483;-79
2022/06/18 04:56:44;;;;;;;4.15;2.55;;;;;;;16.71;97.64;99452.22;5114431;28;20050;-79
2022/06/18 04:59:13;;;;;;;5.97;2.33;;;;;;;17.09;93.56;99454.13;5114813;28;20402;-79
2022/06/18 05:01:39;;;;;;;3.50;2.08;;;;;;;17.60;90.08;99446.81;5114262;28;20414;-79
2022/06/18 05:04:06;;;;;;;4.57;2.13;;;;;;;18.12;85.60;99454.81;5114389;28;20047;-78
2022/06/18 05:06:33;;;;;;;2.70;2.28;;;;;;;18.45;83.54;99430.75;5114364;28;20051;-79
2022/06/18 05:08:59;;;;;;;6.65;2.00;;;;;;;19.02;80.98;99444.25;5113943;28;20050;-78
2022/06/18 05:11:26;;;;;;;4.63;2.25;;;;;;;19.42;77.30;99447.25;5114159;28;20047;-78
2022/06/18 05:13:52;;;;;;;4.55;2.30;;;;;;;19.60;76.41;99445.47;5114027;28;20422;-78
2022/06/18 05:16:20;;;;;;;2.28;2.08;;;;;;;19.75;75.44;99448.63;5114418;28;20043;-79
2022/06/18 05:18:47;;;;;;;5.85;2.13;;;;;;;19.69;73.62;99446.84;5114156;28;20071;-79
2022/06/18 05:21:14;;;;;;;5.35;2.22;;;;;;;19.74;73.05;99430.41;5114443;27;20506;-78
2022/06/18 05:23:41;;;;;;;3.25;1.98;;;;;;;20.30;70.82;99441.94;5113660;28;20043;-79
2022/06/18 05:26:14;;;;;;;4.03;2.13;;;;;;;20.24;70.55;99439.31;5114061;28;20055;-79
2022/06/18 05:28:40;;;;;;;5.90;2.65;;;;;;;20.41;69.23;99440.22;5113918;28;20057;-79
2022/06/18 05:31:07;;;;;;;8.68;2.10;;;;;;;20.72;66.75;99435.41;5114049;28;20060;-79
2022/06/18 05:33:35;;;;;;;2.03;1.83;;;;;;;21.20;65.04;99430.50;5113648;28;20063;-79
2022/06/18 05:36:01;;;;;;;4.30;1.90;;;;;;;21.11;63.31;99438.38;5112566;28;20055;-79
2022/06/18 05:38:28;;;;;;;4.68;1.88;;;;;;;21.16;62.45;99415.50;5113635;28;20055;-79
2022/06/18 05:40:54;;;;;;;1.67;1.58;;;;;;;21.48;61.41;99432.41;5112736;28;20051;-79
2022/06/18 05:43:21;;;;;;;3.15;2.00;;;;;;;21.78;60.83;99414.63;5113583;28;20474;-79
2022/06/18 05:45:48;;;;;;;4.10;1.85;;;;;;;21.86;60.33;99411.47;5133421;27;20059;-79
2022/06/18 05:48:15;;;;;;;2.47;1.77;;;;;;;21.83;60.63;99408.34;5134336;27;20424;-79
2022/06/18 05:50:42;;;;;;;6.07;2.67;;;;;;;22.15;60.14;99400.25;5124838;27;20071;-79
2022/06/18 05:53:09;;;;;;;2.28;1.70;;;;;;;22.62;59.26;99421.94;5113798;28;20052;-79
2022/06/18 05:55:36;;;;;;;3.08;1.75;;;;;;;22.48;59.80;99411.50;5113603;28;20048;-79
2022/06/18 05:58:02;;;;;;;4.60;2.08;;;;;;;22.89;58.30;99415.59;5113857;28;20048;-79
2022/06/18 06:00:31;;;;;;;2.88;1.75;;;;;;;22.98;57.88;99404.91;5113535;28;20047;-79
2022/06/18 06:02:58;;;;;;;3.47;1.90;;;;;;;23.39;57.16;99419.19;5113595;28;20044;-79
2022/06/18 06:05:25;;;;;;;2.95;1.75;;;;;;;23.44;57.19;99399.84;5112408;28;20407;-79
2022/06/18 06:07:53;;;;;;;5.30;1.65;;;;;;;23.77;55.86;99406.22;5113749;28;20502;-79
2022/06/18 06:13:08;;;;;;;4.55;1.63;;;;;;;24.18;54.72;99406.50;5113417;28;20104;-79
2022/06/18 06:15:35;;;;;;;6.07;1.70;;;;;;;24.67;54.19;99410.91;5113708;28;20135;-79
2022/06/18 06:18:02;;;;;;;2.38;1.50;;;;;;;24.95;53.22;99405.19;5113585;28;20040;-79
2022/06/18 06:20:32;;;;;;;2.85;2.00;;;;;;;25.17;52.71;99408.56;5112080;28;20044;-79
2022/06/18 06:23:00;;;;;;;17.13;2.28;;;;;;;25.32;52.97;99406.94;5113407;28;20051;-79
2022/06/18 06:25:26;;;;;;;2.50;1.85;;;;;;;25.33;52.70;99395.53;5113493;28;20055;-79
2022/06/18 06:27:53;;;;;;;2.55;1.30;;;;;;;25.30;49.67;99410.00;5117144;28;20067;-78
2022/06/18 06:30:19;;;;;;;3.33;1.67;;;;;;;24.99;48.65;99387.69;5122285;28;20475;-78
2022/06/18 06:32:46;;;;;;;2.65;1.80;;;;;;;25.53;46.67;99399.44;5113470;28;20048;-79
2022/06/18 06:35:14;;;;;;;3.63;1.50;;;;;;;25.28;46.29;99401.06;5113807;28;20063;-79
2022/06/18 06:37:41;;;;;;;3.92;1.50;;;;;;;25.53;45.59;99393.88;5113679;28;20051;-79
2022/06/18 06:40:11;;;;;;;2.50;1.58;;;;;;;25.73;45.78;99399.44;5113682;28;20411;-79
2022/06/18 06:42:42;;;;;;;2.63;1.65;;;;;;;25.75;44.40;99393.59;5113697;28;20062;-78
2022/06/18 06:45:13;;;;;;;6.43;2.85;;;;;;;25.91;44.06;99395.25;5113729;28;20480;-79
2022/06/18 06:47:39;;;;;;;5.90;1.73;;;;;;;25.84;43.34;99399.44;5113462;28;20559;-79
2022/06/18 06:50:07;;;;;;;2.60;1.25;;;;;;;26.02;42.99;99375.75;5113335;28;20047;-80
2022/06/18 06:52:34;;;;;;;2.10;1.40;;;;;;;26.13;42.97;99386.56;5114826;28;20051;-79
2022/06/18 06:57:43;;;;;;;2.63;1.80;;;;;;;26.67;43.29;99400.91;5116936;28;20044;-79
2022/06/18 07:00:11;;;;;;;3.38;1.55;;;;;;;26.99;43.78;99406.06;5116951;28;20047;-79
2022/06/18 07:02:38;;;;;;;1.90;1.33;;;;;;;27.08;41.57;99400.69;5115543;28;20093;-79
2022/06/18 07:05:05;;;;;;;2.20;1.67;;;;;;;26.78;40.59;99401.69;5117143;28;20048;-79
2022/06/18 07:07:32;;;;;;;5.47;1.42;;;;;;;26.93;43.24;99406.34;5116730;28;20051;-79
2022/06/18 07:09:58;;;;;;;1.60;1.50;;;;;;;26.89;43.01;99406.09;5115571;28;20043;-79
2022/06/18 07:12:25;;;;;;;2.35;1.50;;;;;;;26.87;42.52;99401.94;5116369;28;20494;-79
2022/06/18 07:14:52;;;;;;;2.90;1.80;;;;;;;27.01;43.02;99401.00;5116581;28;20479;-80
2022/06/18 07:17:23;;;;;;;1.75;1.63;;;;;;;26.69;42.50;99406.19;5116178;27;20506;-79
2022/06/18 07:19:49;;;;;;;5.07;1.85;;;;;;;27.01;41.95;99402.97;5116619;28;20398;-79
2022/06/18 07:22:16;;;;;;;4.25;1.33;;;;;;;27.34;43.38;99400.53;5116207;28;20055;-79
2022/06/18 07:24:42;;;;;;;2.85;2.10;;;;;;;27.63;43.30;99408.97;5116718;28;20052;-79
2022/06/18 07:27:09;;;;;;;5.38;2.17;;;;;;;27.86;41.43;99403.72;5116612;28;20055;-79
2022/06/18 07:29:35;;;;;;;1.67;1.50;;;;;;;27.18;42.60;99385.84;5114629;27;20047;-80
2022/06/18 07:32:08;;;;;;;35.30;6.72;;;;;;;27.48;43.20;99384.81;5116157;28;20454;-79
2022/06/18 07:34:34;;;;;;;9.88;2.47;;;;;;;28.32;43.60;99394.91;5115742;28;20048;-80
2022/06/18 07:37:01;;;;;;;2.83;1.50;;;;;;;27.94;42.41;99391.09;5121348;27;20054;-80
2022/06/18 07:39:27;;;;;;;2.70;1.70;;;;;;;28.19;41.44;99393.63;5115115;27;20126;-79
2022/06/18 07:41:55;;;;;;;3.38;1.70;;;;;;;28.06;42.01;99375.63;5116236;28;20085;-79
2022/06/18 07:44:22;;;;;;;3.83;2.00;;;;;;;28.58;43.44;99384.22;5116007;28;20406;-79
2022/06/18 07:46:49;;;;;;;7.30;2.53;;;;;;;28.64;40.90;99376.66;5116119;28;20055;-80
2022/06/18 07:49:17;;;;;;;2.60;1.80;;;;;;;28.45;41.28;99367.34;5116254;28;20410;-80
2022/06/18 07:51:44;;;;;;;3.75;1.83;;;;;;;28.35;42.46;99379.47;5115861;28;20479;-79
2022/06/18 07:54:14;;;;;;;2.53;1.50;;;;;;;28.48;39.39;99373.16;5114536;27;20510;-79
2022/06/18 07:56:40;;;;;;;3.72;1.77;;;;;;;28.66;40.43;99365.97;5115916;28;20086;-79
2022/06/18 07:59:07;;;;;;;3.45;1.60;;;;;;;28.88;42.39;99364.56;5115676;28;20480;-79
2022/06/18 08:01:33;;;;;;;2.42;1.80;;;;;;;28.69;42.44;99359.78;5115900;28;20486;-79
2022/06/18 08:04:00;;;;;;;7.07;1.83;;;;;;;28.53;42.13;99367.53;5114341;28;20043;-80
2022/06/18 08:06:27;;;;;;;10.43;2.25;;;;;;;28.41;42.93;99369.94;5115738;28;20411;-80
2022/06/18 08:08:54;;;;;;;3.88;2.25;;;;;;;28.80;42.77;99366.09;5115574;27;20059;-79
2022/06/18 08:11:21;;;;;;;4.85;1.60;;;;;;;28.80;39.64;99363.28;5116013;28;20047;-80
2022/06/18 08:13:49;;;;;;;9.75;4.72;;;;;;;28.92;39.83;99366.47;5116023;28;20403;-80
2022/06/18 08:16:17;;;;;;;14.05;4.40;;;;;;;29.02;40.04;99361.84;5116438;28;20132;-79
2022/06/18 08:18:44;;;;;;;1.77;1.30;;;;;;;28.89;37.14;99361.47;5115930;28;20043;-80
2022/06/18 08:21:16;;;;;;;1.40;1.30;;;;;;;28.69;37.43;99347.78;5115774;28;20115;-80
2022/06/18 08:23:45;;;;;;;3.35;1.50;;;;;;;28.64;37.37;99353.44;5095268;28;20689;-80
2022/06/18 08:26:12;;;;;;;3.13;1.67;;;;;;;29.33;35.78;99355.78;5095396;28;20052;-80
2022/06/18 08:28:40;;;;;;;2.83;1.50;;;;;;;29.57;37.23;99342.50;5095294;28;20051;-79
2022/06/18 08:31:08;;;;;;;5.25;1.27;;;;;;;29.72;35.45;99348.94;5095222;28;20076;-80
2022/06/18 08:33:35;;;;;;;4.20;1.65;;;;;;;29.45;35.11;99351.38;5094681;28;20048;-80
2022/06/18 08:36:08;;;;;;;1.80;1.60;;;;;;;29.57;37.55;99347.25;5095160;28;20149;-80
2022/06/18 08:38:36;;;;;;;2.50;1.38;;;;;;;29.60;36.62;99336.28;5114251;28;20104;-80
2022/06/18 08:41:14;;;;;;;2.97;1.50;;;;;;;29.76;38.16;99339.63;5115293;28;20076;-80
2022/06/18 08:44:04;;;;;;;1.63;1.27;;;;;;;29.90;37.47;99330.44;5115089;28;20054;-80
2022/06/18 08:46:39;;;;;;;4.47;2.25;;;;;;;29.97;37.72;99328.88;5115793;28;20047;-80
2022/06/18 08:49:43;;;;;;;3.88;1.65;;;;;;;29.89;35.86;99326.00;5118477;28;20088;-80
2022/06/18 08:52:27;;;;;;;4.28;1.50;;;;;;;30.20;37.58;99323.41;5107935;27;20048;-80
2022/06/18 08:55:01;;;;;;;3.17;1.52;;;;;;;30.21;35.89;99310.22;5119110;28;20050;-79
2022/06/18 08:57:38;;;;;;;2.58;1.45;;;;;;;30.56;34.13;99327.44;5117555;28;20051;-80
2022/06/18 09:00:12;;;;;;;5.20;1.80;;;;;;;30.29;35.72;99315.94;5115008;28;20055;-79
2022/06/18 09:02:42;;;;;;;3.60;1.58;;;;;;;30.37;36.22;99322.78;5114436;28;20051;-80
2022/06/18 09:05:23;;;;;;;6.70;1.60;;;;;;;30.54;34.25;99325.78;5115074;28;20482;-80
2022/06/18 09:08:08;;;;;;;2.90;1.20;;;;;;;30.31;33.84;99322.03;5116466;28;20052;-80
2022/06/18 09:10:49;;;;;;;5.82;1.20;;;;;;;30.34;34.28;99320.59;5118516;28;20040;-80
2022/06/18 09:13:22;;;;;;;1.75;1.20;;;;;;;30.52;32.73;99316.84;5118244;28;20134;-79
2022/06/18 09:15:54;;;;;;;4.03;1.10;;;;;;;30.60;34.04;99320.91;5117609;28;20142;-79
2022/06/18 09:18:24;;;;;;;1.80;1.42;;;;;;;30.67;31.34;99321.31;5117739;28;20061;-80
2022/06/18 09:21:03;;;;;;;10.55;1.40;;;;;;;30.98;33.21;99319.75;5117276;28;20057;-79
2022/06/18 09:23:36;;;;;;;4.93;1.58;;;;;;;31.19;33.87;99314.50;5116335;28;20043;-80
2022/06/18 09:26:08;;;;;;;3.95;1.40;;;;;;;31.33;34.72;99308.81;5118465;28;20051;-80
2022/06/18 09:28:42;;;;;;;1.73;1.38;;;;;;;31.07;31.62;99301.03;5117904;28;20255;-79
2022/06/18 09:31:14;;;;;;;2.17;1.40;;;;;;;31.44;33.27;99312.22;5118855;28;20055;-80
2022/06/18 09:33:44;;;;;;;2.63;0.90;;;;;;;31.22;30.75;99302.63;5116650;28;20047;-80
2022/06/18 09:36:18;;;;;;;3.85;1.40;;;;;;;31.15;29.27;99305.03;5116431;28;20043;-80
2022/06/18 09:38:50;;;;;;;2.33;1.10;;;;;;;31.57;31.50;99308.50;5117239;28;20067;-80
2022/06/18 09:41:22;;;;;;;1.98;1.20;;;;;;;31.38;30.25;99301.09;5118458;28;20051;-80
2022/06/18 09:43:58;;;;;;;2.45;1.45;;;;;;;31.64;30.64;99299.63;5121552;28;20053;-80
2022/06/18 09:46:31;;;;;;;4.18;1.15;;;;;;;31.53;29.87;99294.25;5098496;28;20052;-80
2022/06/18 09:49:00;;;;;;;2.28;1.08;;;;;;;31.77;30.89;99290.28;5103396;28;20059;-80
2022/06/18 09:51:32;;;;;;;1.75;1.40;;;;;;;32.01;32.44;99291.84;5118003;28;20044;-80
2022/06/18 09:54:11;;;;;;;3.30;1.05;;;;;;;31.91;29.49;99278.91;5118061;28;20448;-79
2022/06/18 09:56:44;;;;;;;5.93;1.10;;;;;;;31.52;29.26;99291.75;5118475;28;20050;-80
2022/06/18 09:59:24;;;;;;;2.03;1.17;;;;;;;31.51;28.79;99282.50;5116526;28;20103;-80
2022/06/18 10:01:53;;;;;;;8.13;1.20;;;;;;;31.76;26.71;99280.16;5117712;28;20043;-80
2022/06/18 10:07:19;;;;;;;1.40;1.20;;;;;;;32.06;26.98;99286.09;5117538;28;20134;-80
2022/06/18 10:09:51;;;;;;;4.35;1.35;;;;;;;32.07;26.90;99279.31;5120848;28;20059;-81
2022/06/18 10:12:23;;;;;;;1.83;1.13;;;;;;;32.21;25.27;99274.41;5117460;28;20043;-80
2022/06/18 10:14:53;;;;;;;2.75;1.25;;;;;;;32.20;25.93;99281.19;5119614;28;20104;-80
2022/06/18 10:17:42;;;;;;;4.25;1.20;;;;;;;32.39;24.46;99275.28;5116989;28;20054;-81
2022/06/18 10:20:15;;;;;;;3.47;1.58;;;;;;;32.55;26.37;99270.00;5110429;28;20039;-81
2022/06/18 10:22:48;;;;;;;2.33;1.33;;;;;;;32.36;27.26;99259.06;5113471;28;20052;-81
2022/06/18 10:25:30;;;;;;;1.27;1.00;;;;;;;32.66;27.63;99258.47;5113765;28;20066;-81
2022/06/18 10:28:06;;;;;;;3.50;0.90;;;;;;;32.89;27.52;99259.13;5115915;28;20502;-80
2022/06/18 10:30:45;;;;;;;2.50;0.98;;;;;;;32.90;26.77;99236.28;5097368;28;20052;-80
2022/06/18 10:33:22;;;;;;;0.70;0.70;;;;;;;33.19;25.05;99234.72;5100767;27;20055;-80
2022/06/18 10:35:58;;;;;;;0.70;0.70;;;;;;;32.88;24.63;99241.41;5138439;27;20057;-80
2022/06/18 10:38:46;;;;;;;1.25;0.80;;;;;;;32.50;24.03;99238.38;5138107;27;20478;-80
2022/06/18 10:41:17;;;;;;;1.10;0.90;;;;;;;32.86;23.63;99232.44;5138250;27;20054;-81
2022/06/18 10:44:10;;;;;;;1.00;0.90;;;;;;;32.89;24.46;99242.22;5137751;27;20050;-81
2022/06/18 10:46:38;;;;;;;1.00;0.70;;;;;;;33.05;23.12;99226.47;5137582;27;20047;-81
2022/06/18 10:49:06;;;;;;;0.75;0.73;;;;;;;33.24;24.36;99226.16;5123768;27;20048;-81
2022/06/18 10:51:41;;;;;;;1.65;0.90;;;;;;;33.49;24.49;99227.22;5117264;28;20368;-81
2022/06/18 10:54:09;;;;;;;0.95;0.95;;;;;;;33.40;22.89;99217.16;5117001;28;20059;-81
2022/06/18 10:56:47;;;;;;;3.15;0.77;;;;;;;33.23;23.85;99209.56;5117204;28;20051;-81
2022/06/18 10:59:13;;;;;;;2.72;1.08;;;;;;;33.15;24.69;99191.50;5117150;28;20487;-80
2022/06/18 11:01:46;;;;;;;1.00;0.88;;;;;;;33.31;25.30;99212.34;5116369;28;20048;-81
2022/06/18 11:04:20;;;;;;;1.85;1.08;;;;;;;33.57;24.19;99214.25;5115574;27;20131;-81
2022/06/18 11:06:48;;;;;;;1.48;0.93;;;;;;;33.25;22.86;99204.44;5117335;28;20047;-81
2022/06/18 11:09:22;;;;;;;2.53;0.90;;;;;;;33.67;23.05;99196.97;5116759;28;20055;-80
2022/06/18 11:11:54;;;;;;;2.42;1.10;;;;;;;33.98;22.97;99197.84;5117355;28;20078;-79
2022/06/18 11:14:21;;;;;;;1.88;0.90;;;;;;;33.66;23.21;99184.06;5116500;28;20418;-79
2022/06/18 11:16:51;;;;;;;3.60;0.98;;;;;;;33.59;24.29;99191.38;5116552;27;20059;-80
2022/06/18 11:19:25;;;;;;;2.53;1.13;;;;;;;33.31;23.39;99197.47;5116574;27;20047;-79
2022/06/18 11:21:53;;;;;;;1.65;0.80;;;;;;;33.78;24.52;99190.97;5121440;28;20054;-79
2022/06/18 11:24:29;;;;;;;1.80;0.80;;;;;;;33.45;22.57;99183.16;5120417;28;20051;-79
2022/06/18 11:26:59;;;;;;;1.02;0.70;;;;;;;33.74;24.49;99195.63;5118420;28;20048;-79
2022/06/18 11:29:29;;;;;;;;;;;;;;;33.81;24.34;99190.31;5119694;28;20051;-80
2022/06/18 11:32:00;;;;;;;3.67;0.82;;;;;;;33.55;22.77;99187.59;5116887;27;19926;-80
2022/06/18 11:34:28;;;;;;;3.95;1.00;;;;;;;33.67;22.10;99182.88;5100079;28;20091;-80
2022/06/18 11:36:58;;;;;;;2.20;1.05;;;;;;;34.06;23.80;99182.88;5116995;28;20044;-81
2022/06/18 11:39:36;;;;;;;1.23;0.80;;;;;;;34.21;24.04;99156.88;5116002;28;20051;-80
2022/06/18 11:42:13;;;;;;;4.60;0.93;;;;;;;34.74;22.95;99173.38;5116441;28;20043;-80
2022/06/18 11:44:45;;;;;;;4.53;0.90;;;;;;;34.60;20.71;99170.00;5116431;28;20138;-80
2022/06/18 11:47:19;;;;;;;3.85;1.15;;;;;;;34.92;22.57;99174.06;5116415;27;20073;-79
2022/06/18 11:49:57;;;;;;;2.30;1.00;;;;;;;35.23;21.98;99162.25;5116388;28;20056;-80
2022/06/18 11:52:33;;;;;;;3.78;0.90;;;;;;;34.92;22.08;99157.94;5120425;28;20047;-81
2022/06/18 11:55:11;;;;;;;4.47;1.10;;;;;;;34.95;22.73;99153.59;5119703;28;20071;-80
2022/06/18 11:57:45;;;;;;;4.22;1.08;;;;;;;35.20;22.43;99154.50;5120826;28;20081;-80